Nyack, New York
Current Conditions -  °F | °C
As of 4:56 AM on Wednesday 26 Nov 2014 (Local Time) from KHPN Reporting Station
Light Rain Light Rain  
Wind Chill: 35°   Ceiling: 11000
Heat Index: 43°   Visibility: 10mi
Dew Point: 30°   Wind: 17mph
Humidity: 60%   Direction: 350°N
Pressure: 30.11"   Gusts: NA
Location:  41.09°N, 73.92°W
Report Text: KHPN 260956Z 35015KT 10SM -RA FEW085 OVC110 06/M01 A3011 RMK AO2 RAB51 SLP201 P0000 T00611011
Loading
Personal Weather Stations






























Interactive Weather Map New forecast layout! Learn more

10-Day Weather Forecast

Advertisements
Track Severe Weather on mobile